Time;durP1;ratioP1;P1;durP2;ratioP2;P2;SDS_P1;SDS_P2;PMS_P1;PMS_P2;Temp;Humidity;BMP_temperature;BMP_pressure;BME280_temperature;BME280_humidity;BME280_pressure;Samples;Min_cycle;Max_cycle;Signal;HPM_P1;HPM_P2
2022/10/13 00:02:24;;;;;;;28.67;17.33;;;;;;;-141.97;79.95;47515.22;5013302;28;20198;-90
2022/10/13 00:04:50;;;;;;;30.47;16.80;;;;;;;-141.97;79.42;47569.06;4995204;28;20167;-90
2022/10/13 00:07:15;;;;;;;28.60;17.00;;;;;;;-141.97;78.30;47818.94;4995150;28;20182;-90
2022/10/13 00:09:40;;;;;;;35.67;19.70;;;;;;;-141.97;77.31;47607.50;5012726;28;20167;-90
2022/10/13 00:12:06;;;;;;;30.53;16.27;;;;;;;-141.97;76.60;47684.38;4995316;28;20256;-90
2022/10/13 00:14:31;;;;;;;26.43;15.53;;;;;;;-141.97;76.22;47649.78;4995308;28;20210;-91
2022/10/13 00:16:57;;;;;;;27.27;15.13;;;;;;;-141.97;76.11;47597.88;4995882;28;20170;-90
2022/10/13 00:19:22;;;;;;;24.80;14.93;;;;;;;-141.97;75.72;47622.88;4997699;28;20539;-90
2022/10/13 00:21:47;;;;;;;24.53;14.63;;;;;;;-141.97;76.31;47730.50;5018969;28;20646;-90
2022/10/13 00:24:13;;;;;;;24.67;14.47;;;;;;;-141.97;76.40;47634.41;5015283;28;20213;-90
2022/10/13 00:26:38;;;;;;;25.40;15.70;;;;;;;-141.97;76.71;47599.81;4995335;28;20197;-90
2022/10/13 00:29:04;;;;;;;24.07;15.27;;;;;;;-141.97;77.01;47570.97;4994962;28;20269;-90
2022/10/13 00:31:31;;;;;;;27.23;15.73;;;;;;;-141.97;77.29;47753.56;4995496;28;20190;-90
2022/10/13 00:33:58;;;;;;;27.87;15.83;;;;;;;-141.97;76.94;47555.59;5013553;28;20289;-88
2022/10/13 00:36:23;;;;;;;28.90;15.83;;;;;;;-141.97;77.87;47601.72;5034616;28;20179;-86
2022/10/13 00:38:50;;;;;;;33.63;17.40;;;;;;;-141.97;78.17;47478.72;5020414;28;20179;-90
2022/10/13 00:41:16;;;;;;;39.80;20.27;;;;;;;-141.97;78.39;47768.94;5012252;28;20186;-90
2022/10/13 00:44:26;;;;;;;109.47;41.73;;;;;;;-141.97;78.62;47699.75;4994806;28;20228;-91
2022/10/13 00:46:52;;;;;;;89.33;37.47;;;;;;;-141.97;78.65;47676.69;4994725;28;20618;-90
2022/10/13 00:49:17;;;;;;;48.17;25.43;;;;;;;-141.97;78.83;47546.00;4994609;28;20630;-91
2022/10/13 00:51:46;;;;;;;40.00;22.17;;;;;;;-141.97;78.54;47538.28;5011986;28;20167;-90
2022/10/13 00:54:16;;;;;;;39.63;21.83;;;;;;;-141.97;78.68;47745.88;4994953;28;20206;-91
2022/10/13 00:56:44;;;;;;;42.37;21.97;;;;;;;-141.97;78.36;47688.22;5001181;28;20167;-90
2022/10/13 00:59:13;;;;;;;39.37;20.60;;;;;;;-141.97;78.16;47811.25;4999313;28;20182;-90
2022/10/13 01:01:39;;;;;;;44.57;23.57;;;;;;;-141.97;78.48;47663.22;4997859;28;20200;-88
2022/10/13 01:04:05;;;;;;;43.50;23.47;;;;;;;-141.97;78.33;47703.59;5015469;28;20589;-89
2022/10/13 01:06:30;;;;;;;45.93;23.37;;;;;;;-141.97;78.51;47772.78;5003888;28;20173;-90
2022/10/13 01:08:56;;;;;;;44.20;22.43;;;;;;;-141.97;79.10;47780.47;5002176;28;20171;-89
2022/10/13 01:11:40;;;;;;;41.43;21.47;;;;;;;-141.97;79.16;47626.72;4997216;28;20245;-91
2022/10/13 01:14:28;;;;;;;37.97;20.43;;;;;;;-141.97;79.23;47688.22;4995096;28;20260;-90
2022/10/13 01:17:04;;;;;;;39.50;21.07;;;;;;;-141.97;79.17;47678.63;5015497;28;20186;-89
2022/10/13 01:19:35;;;;;;;38.80;21.90;;;;;;;-141.97;79.55;47703.59;5004535;28;20229;-88
2022/10/13 01:22:28;;;;;;;47.27;24.80;;;;;;;-141.97;79.89;47715.13;5006452;28;20174;-89
2022/10/13 01:25:25;;;;;;;48.97;25.30;;;;;;;-141.97;80.59;47707.44;4998685;28;20170;-89
2022/10/13 01:28:01;;;;;;;48.00;26.10;;;;;;;-141.97;81.03;47517.16;4998683;28;20599;-89
2022/10/13 01:30:34;;;;;;;50.47;27.63;;;;;;;-141.97;81.09;47747.81;5016366;28;20220;-89
2022/10/13 01:33:39;;;;;;;50.63;26.80;;;;;;;-141.97;81.20;47686.31;4998385;28;20306;-89
2022/10/13 01:36:14;;;;;;;48.70;25.13;;;;;;;-141.97;81.02;47699.75;4999171;28;20183;-90
2022/10/13 01:38:51;;;;;;;49.53;24.57;;;;;;;-141.97;80.79;47676.69;4998296;28;20177;-90
2022/10/13 01:41:29;;;;;;;46.67;24.43;;;;;;;-141.97;80.65;47757.41;4998261;28;20182;-90
2022/10/13 01:44:04;;;;;;;50.13;24.87;;;;;;;-141.97;80.32;47713.22;4998033;28;20170;-90
2022/10/13 01:46:33;;;;;;;47.50;24.53;;;;;;;-141.97;81.13;47547.91;4996546;28;20213;-91
2022/10/13 01:49:03;;;;;;;46.50;24.00;;;;;;;-141.97;81.04;47540.22;4999373;28;20187;-91
2022/10/13 01:51:30;;;;;;;47.33;25.57;;;;;;;-141.97;81.66;47672.84;4999612;28;20191;-89
2022/10/13 01:53:55;;;;;;;48.77;25.30;;;;;;;-141.97;82.88;47624.78;5001224;28;20230;-89
2022/10/13 01:56:21;;;;;;;50.20;26.47;;;;;;;-141.97;83.37;47570.97;5003025;28;20630;-89
2022/10/13 01:58:48;;;;;;;48.73;25.87;;;;;;;-141.97;83.77;47695.91;5005753;28;20179;-89
2022/10/13 02:01:37;;;;;;;51.57;26.47;;;;;;;-141.97;85.36;47690.16;5023588;28;20197;-89
2022/10/13 02:04:05;;;;;;;52.33;26.27;;;;;;;-141.97;84.26;47707.44;4926175;29;20198;-88
2022/10/13 02:06:46;;;;;;;47.93;26.77;;;;;;;-141.97;84.30;47690.16;4911300;29;20218;-89
2022/10/13 02:09:24;;;;;;;51.03;26.17;;;;;;;-141.97;84.72;47738.19;4942889;29;20197;-90
2022/10/13 02:12:04;;;;;;;48.77;26.13;;;;;;;-141.97;85.36;47703.59;4939661;29;20270;-89
2022/10/13 02:14:34;;;;;;;48.63;25.23;;;;;;;-141.97;84.83;47684.38;4940443;29;20225;-88
2022/10/13 02:17:03;;;;;;;49.03;24.63;;;;;;;-141.97;84.41;47659.38;4940268;29;20689;-89
2022/10/13 02:19:32;;;;;;;49.27;24.97;;;;;;;-141.97;85.05;47699.75;4926069;29;20181;-89
2022/10/13 02:21:58;;;;;;;46.67;24.63;;;;;;;-141.97;84.94;47653.63;4942379;29;20677;-89
2022/10/13 02:24:23;;;;;;;48.13;25.00;;;;;;;-141.97;85.19;47713.22;4921928;29;20196;-90
2022/10/13 02:26:50;;;;;;;48.93;23.93;;;;;;;-141.97;85.02;47680.53;4922188;29;20189;-90
2022/10/13 02:29:16;;;;;;;46.27;24.63;;;;;;;-141.97;85.48;47736.28;4936999;29;20229;-90
2022/10/13 02:31:44;;;;;;;44.17;23.83;;;;;;;-141.97;85.10;47511.38;4919949;29;20181;-90
2022/10/13 02:34:09;;;;;;;47.33;24.37;;;;;;;-141.97;84.86;47815.09;4939690;29;20221;-89
2022/10/13 02:36:38;;;;;;;46.40;24.67;;;;;;;-141.97;85.50;47830.47;4923000;29;20567;-90
2022/10/13 02:39:06;;;;;;;47.80;23.90;;;;;;;-141.97;85.55;47661.31;4920034;29;20277;-89
2022/10/13 02:41:32;;;;;;;43.53;23.60;;;;;;;-141.97;85.01;47653.63;4992373;28;20194;-89
2022/10/13 02:43:57;;;;;;;42.87;23.10;;;;;;;-141.97;84.53;47780.47;5015093;28;20198;-89
2022/10/13 02:46:22;;;;;;;86.77;35.27;;;;;;;-141.97;84.65;47797.78;4997569;28;20167;-89
2022/10/13 02:48:48;;;;;;;61.50;29.87;;;;;;;-141.97;85.49;47597.88;5015107;28;20655;-89
2022/10/13 02:51:13;;;;;;;58.67;29.50;;;;;;;-141.97;85.90;47584.44;5015816;28;20175;-89
2022/10/13 02:53:39;;;;;;;47.57;25.50;;;;;;;-141.97;86.83;47636.31;5014891;28;20288;-90
2022/10/13 02:56:05;;;;;;;53.73;28.27;;;;;;;-141.97;87.57;47790.09;5015604;28;20229;-89
2022/10/13 02:58:30;;;;;;;48.83;24.83;;;;;;;-141.97;88.10;47815.09;5001921;28;20654;-89
2022/10/13 03:01:05;;;;;;;52.90;27.67;;;;;;;-141.97;87.93;47599.81;4998217;28;20167;-89
2022/10/13 03:03:30;;;;;;;44.60;23.17;;;;;;;-141.97;86.92;47597.88;5019162;28;20174;-86
2022/10/13 03:05:56;;;;;;;43.77;23.17;;;;;;;-141.97;86.51;47521.00;5005255;28;20185;-90
2022/10/13 03:08:21;;;;;;;42.40;21.67;;;;;;;-141.97;86.17;47574.81;4997325;28;20167;-90
2022/10/13 03:10:47;;;;;;;38.30;20.27;;;;;;;-141.97;86.54;47553.69;4998103;28;20179;-90
2022/10/13 03:13:12;;;;;;;38.40;19.60;;;;;;;-141.97;86.31;47603.66;5014539;28;20181;-90
2022/10/13 03:15:37;;;;;;;39.67;20.73;;;;;;;-141.97;86.71;47795.88;5018251;28;20671;-91
2022/10/13 03:18:03;;;;;;;42.23;20.93;;;;;;;-141.97;86.39;47790.09;5003619;28;20213;-90
2022/10/13 03:20:28;;;;;;;36.60;18.30;;;;;;;-141.97;87.13;47551.75;5021210;28;20174;-90
2022/10/13 03:22:54;;;;;;;36.47;18.70;;;;;;;-141.97;86.83;47695.91;5021523;28;20175;-90
2022/10/13 03:25:19;;;;;;;37.93;19.07;;;;;;;-141.97;86.43;47567.13;5026709;28;20179;-90
2022/10/13 03:27:45;;;;;;;76.20;33.50;;;;;;;-141.97;85.73;47507.53;4997472;28;20177;-90
2022/10/13 03:30:10;;;;;;;40.30;20.77;;;;;;;-141.97;86.14;47542.16;4996719;28;20174;-88
2022/10/13 03:32:36;;;;;;;44.10;22.53;;;;;;;-141.97;87.48;47613.25;4996814;28;20275;-91
2022/10/13 03:35:01;;;;;;;43.03;23.30;;;;;;;-141.97;86.62;47711.28;4997007;28;20198;-91
2022/10/13 03:37:29;;;;;;;40.97;21.00;;;;;;;-141.97;86.03;47605.56;4996603;28;20167;-90
2022/10/13 03:39:55;;;;;;;38.03;18.93;;;;;;;-141.97;85.94;47776.63;5012078;28;20182;-89
2022/10/13 03:42:21;;;;;;;35.77;17.93;;;;;;;-141.97;85.98;47734.34;5013774;28;20666;-91
2022/10/13 03:44:47;;;;;;;34.07;17.43;;;;;;;-141.97;86.75;47726.66;4997264;28;20232;-90
2022/10/13 03:47:13;;;;;;;34.40;17.70;;;;;;;-141.97;86.48;47828.53;4998491;28;20175;-93
2022/10/13 03:49:38;;;;;;;33.70;17.13;;;;;;;-141.97;86.95;47663.22;4996038;28;20264;-90
2022/10/13 03:52:04;;;;;;;37.10;17.50;;;;;;;-141.97;87.35;47540.22;5001115;28;20222;-88
2022/10/13 03:54:30;;;;;;;34.40;17.87;;;;;;;-141.97;87.47;47649.78;5018884;28;20202;-89
2022/10/13 03:56:55;;;;;;;35.77;17.10;;;;;;;-141.97;87.91;47724.75;5000310;28;20190;-91
2022/10/13 03:59:21;;;;;;;30.33;16.77;;;;;;;-141.97;88.08;47549.84;5022338;28;20167;-93
2022/10/13 04:01:47;;;;;;;40.23;21.40;;;;;;;-141.97;88.55;47692.06;5022150;28;20170;-90
2022/10/13 04:04:12;;;;;;;41.80;22.50;;;;;;;-141.97;88.28;47876.59;5016943;28;20700;-89
2022/10/13 04:06:38;;;;;;;37.90;20.33;;;;;;;-141.97;88.28;47619.03;4999347;28;20175;-91
2022/10/13 04:09:03;;;;;;;49.97;28.27;;;;;;;-141.97;87.56;47715.13;4998796;28;20171;-90
2022/10/13 04:11:29;;;;;;;39.93;22.97;;;;;;;-141.97;86.64;47749.72;5003860;28;20175;-90
2022/10/13 04:13:56;;;;;;;37.07;18.03;;;;;;;-141.97;86.80;47757.41;5027156;28;20167;-90
2022/10/13 04:16:24;;;;;;;32.97;17.63;;;;;;;-141.97;87.63;47638.25;5448411;23;20238;-92
2022/10/13 04:18:54;;;;;;;33.93;17.47;;;;;;;-141.97;87.31;47770.88;5017344;28;20242;-93
2022/10/13 04:21:20;;;;;;;36.23;17.03;;;;;;;-141.97;88.07;47501.78;5008141;28;20186;-91
2022/10/13 04:23:46;;;;;;;38.90;17.67;;;;;;;-141.97;88.44;47667.06;5005304;28;20238;-92
2022/10/13 04:26:17;;;;;;;34.80;17.10;;;;;;;-141.97;88.76;47669.00;5008603;28;20205;-91
2022/10/13 04:28:44;;;;;;;30.13;17.10;;;;;;;-141.97;88.89;47751.66;5009040;28;20279;-88
2022/10/13 04:31:13;;;;;;;34.80;17.57;;;;;;;-141.97;89.22;47603.66;5008478;28;20669;-91
2022/10/13 04:33:43;;;;;;;36.07;18.53;;;;;;;-141.97;89.03;47567.13;5021835;28;20216;-91
2022/10/13 04:36:11;;;;;;;36.63;17.77;;;;;;;-141.97;89.15;47805.47;5009610;28;20190;-90
2022/10/13 04:38:37;;;;;;;36.90;17.80;;;;;;;-141.97;89.32;47759.34;5021541;28;20166;-91
2022/10/13 04:41:04;;;;;;;42.83;21.17;;;;;;;-141.97;88.73;47724.75;5003809;28;20175;-94
2022/10/13 04:43:31;;;;;;;39.97;20.93;;;;;;;-141.97;88.86;47694.00;5003672;28;20547;-90
2022/10/13 04:46:03;;;;;;;40.70;21.97;;;;;;;-141.97;87.94;47703.59;5015225;28;20163;-90
2022/10/13 04:48:29;;;;;;;42.80;22.60;;;;;;;-141.97;88.05;47782.41;5002720;28;20548;-91
2022/10/13 04:50:59;;;;;;;44.77;21.43;;;;;;;-141.97;88.30;47818.94;5003320;28;20248;-91
2022/10/13 04:53:28;;;;;;;46.53;20.57;;;;;;;-141.97;88.87;47638.25;4999879;28;20175;-89
2022/10/13 04:55:54;;;;;;;41.33;20.57;;;;;;;-141.97;88.57;47722.81;5017193;28;20186;-89
2022/10/13 04:58:19;;;;;;;43.63;20.93;;;;;;;-141.97;88.88;47628.63;5021174;28;20650;-89
2022/10/13 05:00:46;;;;;;;37.63;18.70;;;;;;;-141.97;89.00;47797.78;5003464;28;20167;-90
2022/10/13 05:03:12;;;;;;;43.83;20.00;;;;;;;-141.97;88.89;47740.13;5016498;28;20163;-91
2022/10/13 05:05:37;;;;;;;37.73;19.27;;;;;;;-141.97;88.51;47795.88;5023768;28;20146;-89
2022/10/13 05:08:03;;;;;;;40.93;19.77;;;;;;;-141.97;88.16;47705.53;5005089;28;20170;-90
2022/10/13 05:10:28;;;;;;;35.70;18.20;;;;;;;-141.97;87.71;47722.81;4995438;28;20235;-93
2022/10/13 05:12:54;;;;;;;78.23;40.57;;;;;;;-141.97;87.38;47755.50;4990904;28;20233;-92
2022/10/13 05:15:19;;;;;;;36.30;19.07;;;;;;;-141.97;87.55;47657.47;4990513;28;20209;-90
2022/10/13 05:17:45;;;;;;;39.90;19.80;;;;;;;-141.97;88.02;47676.69;4948798;28;1156271;-91
2022/10/13 05:20:11;;;;;;;42.40;20.83;;;;;;;-141.97;87.27;47661.31;4972844;28;20679;-91
2022/10/13 05:22:36;;;;;;;66.23;32.40;;;;;;;-141.97;86.04;47707.44;4990162;28;20179;-90
2022/10/13 05:25:02;;;;;;;45.03;23.40;;;;;;;-141.97;85.10;47582.50;5016253;28;20180;-90
2022/10/13 05:27:28;;;;;;;33.97;18.27;;;;;;;-141.97;84.44;47730.50;5008840;28;20197;-88
2022/10/13 05:29:53;;;;;;;39.00;19.73;;;;;;;-141.97;83.68;47755.50;4987033;28;20175;-90
2022/10/13 05:32:19;;;;;;;42.73;20.50;;;;;;;-141.97;84.67;47663.22;4990381;28;20186;-90
2022/10/13 05:34:47;;;;;;;46.40;22.57;;;;;;;-141.97;85.68;47745.88;4990303;28;20299;-91
2022/10/13 05:37:12;;;;;;;52.97;26.10;;;;;;;-141.97;85.98;47807.41;4972655;28;20183;-90
2022/10/13 05:39:37;;;;;;;49.50;24.37;;;;;;;-141.97;85.72;47584.44;4990101;28;20183;-90
2022/10/13 05:42:03;;;;;;;73.20;38.27;;;;;;;-141.97;85.01;47826.63;4972755;28;20568;-91
2022/10/13 05:44:29;;;;;;;62.57;33.40;;;;;;;-141.97;84.17;47574.81;4984790;28;20209;-91
2022/10/13 05:46:55;;;;;;;53.43;30.83;;;;;;;-141.97;83.82;47690.16;4993182;28;20202;-91
2022/10/13 05:49:20;;;;;;;49.67;24.90;;;;;;;-141.97;82.31;47649.78;4992804;28;20666;-91
2022/10/13 05:51:49;;;;;;;37.10;19.80;;;;;;;-141.97;82.18;47734.34;5009916;28;20179;-91
2022/10/13 05:54:23;;;;;;;32.70;18.53;;;;;;;-141.97;81.52;47718.97;4991885;28;20872;-90
2022/10/13 05:57:35;;;;;;;36.33;19.17;;;;;;;-141.97;81.03;47730.50;4993628;28;20270;-91
2022/10/13 06:00:05;;;;;;;34.50;17.57;;;;;;;-141.97;81.14;47711.28;4934057;29;20227;-91
2022/10/13 06:02:35;;;;;;;36.40;19.00;;;;;;;-141.97;80.35;47542.16;4924224;29;20173;-92
2022/10/13 06:05:03;;;;;;;32.77;17.47;;;;;;;-141.97;80.57;47605.56;4915262;29;20702;-90
2022/10/13 06:07:30;;;;;;;30.13;16.57;;;;;;;-141.97;80.77;47695.91;4937553;29;20248;-93
2022/10/13 06:09:56;;;;;;;32.50;17.60;;;;;;;-141.97;81.20;47647.84;4948104;29;20188;-92
2022/10/13 06:12:22;;;;;;;31.97;17.30;;;;;;;-141.97;81.00;47624.78;4954645;29;20182;-92
2022/10/13 06:14:47;;;;;;;50.53;28.37;;;;;;;-141.97;80.17;47580.59;4936623;29;20197;-92
2022/10/13 06:17:13;;;;;;;48.80;24.80;;;;;;;-141.97;78.65;47630.56;4935073;29;20235;-93
2022/10/13 06:19:38;;;;;;;60.10;36.33;;;;;;;-141.97;77.18;47567.13;4935492;29;20181;-92
2022/10/13 06:22:04;;;;;;;55.60;33.47;;;;;;;-141.97;76.49;47555.59;4935914;29;20632;-90
2022/10/13 06:24:29;;;;;;;36.37;21.33;;;;;;;-141.97;76.64;47507.53;4935474;29;20193;-90
2022/10/13 06:26:55;;;;;;;32.73;18.07;;;;;;;-141.97;76.66;47672.84;4942234;29;20180;-90
2022/10/13 06:29:20;;;;;;;30.97;17.70;;;;;;;-141.97;76.05;47747.81;4957656;29;20568;-90
2022/10/13 06:31:46;;;;;;;38.67;19.60;;;;;;;-141.97;75.58;47795.88;4954639;29;20173;-90
2022/10/13 06:34:12;;;;;;;32.70;18.23;;;;;;;-141.97;75.15;47607.50;4955687;29;20706;-90
2022/10/13 06:36:37;;;;;;;26.93;15.87;;;;;;;-141.97;74.30;47653.63;4992444;28;20198;-91
2022/10/13 06:39:02;;;;;;;29.00;15.80;;;;;;;-141.97;73.65;47590.19;4998054;28;20603;-92
2022/10/13 06:41:28;;;;;;;24.70;15.53;;;;;;;-141.97;73.39;47688.22;5019098;28;20173;-91
2022/10/13 06:43:53;;;;;;;26.17;14.70;;;;;;;-141.97;72.80;47818.94;5010646;28;20162;-92
2022/10/13 06:46:19;;;;;;;28.97;15.97;;;;;;;-141.97;72.34;47653.63;5034819;28;20193;-89
2022/10/13 06:48:47;;;;;;;27.43;16.43;;;;;;;-141.97;72.67;47622.88;5005656;28;20224;-90
2022/10/13 06:51:13;;;;;;;27.97;15.40;;;;;;;-141.97;72.57;47544.06;5002416;28;20174;-91
2022/10/13 06:53:38;;;;;;;25.30;14.23;;;;;;;-141.97;71.92;47682.47;5002107;28;20175;-89
2022/10/13 06:56:05;;;;;;;27.13;14.07;;;;;;;-141.97;71.42;47611.34;5002581;28;20674;-88
2022/10/13 06:58:31;;;;;;;42.13;25.40;;;;;;;-141.97;70.53;47511.38;5009153;28;20532;-89
2022/10/13 07:00:56;;;;;;;30.53;19.83;;;;;;;-141.97;69.90;47507.53;5034502;28;20221;-90
2022/10/13 07:03:22;;;;;;;46.97;27.80;;;;;;;-141.97;68.66;47817.00;4993815;28;20191;-92
2022/10/13 07:05:48;;;;;;;117.90;84.50;;;;;;;-141.97;67.51;47634.41;4981659;28;20238;-92
2022/10/13 07:08:14;;;;;;;155.93;96.43;;;;;;;-141.97;67.97;47695.91;4990364;28;20175;-90
2022/10/13 07:10:41;;;;;;;41.67;25.73;;;;;;;-141.97;69.07;47569.06;5007621;28;20175;-90
2022/10/13 07:13:06;;;;;;;25.57;16.00;;;;;;;-141.97;70.33;47624.78;4987185;28;20252;-80
2022/10/13 07:15:32;;;;;;;46.57;31.03;;;;;;;-141.97;70.44;47695.91;4995200;28;20270;-79
2022/10/13 07:17:58;;;;;;;34.20;20.63;;;;;;;-141.97;69.18;47715.13;4994570;28;20231;-79
2022/10/13 07:20:24;;;;;;;26.83;15.50;;;;;;;-141.97;68.23;47703.59;4992804;28;20214;-80
2022/10/13 07:22:53;;;;;;;29.47;16.20;;;;;;;-141.97;67.84;47703.59;4993194;28;20600;-79
2022/10/13 07:25:19;;;;;;;25.83;16.03;;;;;;;-141.97;67.97;47699.75;4993364;28;20163;-80
2022/10/13 07:27:44;;;;;;;26.20;16.20;;;;;;;-141.97;66.55;47868.91;4993455;28;20163;-80
2022/10/13 07:30:11;;;;;;;26.97;15.00;;;;;;;-141.97;66.07;47670.91;4992693;28;20179;-80
2022/10/13 07:32:37;;;;;;;21.97;12.77;;;;;;;-141.97;64.36;47694.00;4976027;28;20187;-80
2022/10/13 07:35:04;;;;;;;24.63;15.10;;;;;;;-141.97;63.62;47680.53;4991944;28;20191;-80
2022/10/13 07:37:29;;;;;;;17.53;11.60;;;;;;;-141.97;63.30;47676.69;4993720;28;20175;-80
2022/10/13 07:39:55;;;;;;;38.57;29.80;;;;;;;-141.97;64.47;47653.63;4992731;28;20549;-81
2022/10/13 07:42:20;;;;;;;18.40;12.63;;;;;;;-141.97;64.05;47640.16;4993029;28;20186;-80
2022/10/13 07:44:46;;;;;;;19.67;12.27;;;;;;;-141.97;63.53;47730.50;4975149;28;20210;-81
2022/10/13 07:47:11;;;;;;;22.87;13.43;;;;;;;-141.97;63.67;47672.84;4993110;28;20170;-81
2022/10/13 07:49:36;;;;;;;19.10;11.90;;;;;;;-141.97;63.16;47649.78;4992815;28;20178;-81
2022/10/13 07:52:02;;;;;;;20.87;13.87;;;;;;;-141.97;62.62;47605.56;4992997;28;20190;-80
2022/10/13 07:54:28;;;;;;;17.77;10.53;;;;;;;-141.97;60.63;47657.47;4992181;28;20230;-80
2022/10/13 07:56:54;;;;;;;19.13;11.00;;;;;;;-141.97;60.04;47599.81;4984330;28;20175;-80
2022/10/13 07:59:20;;;;;;;18.03;10.97;;;;;;;-141.97;59.84;47663.22;5012177;28;20171;-80
2022/10/13 08:01:46;;;;;;;16.10;9.63;;;;;;;-141.97;58.82;47695.91;4993738;28;20198;-80
2022/10/13 08:04:11;;;;;;;15.83;8.83;;;;;;;-141.97;58.34;47701.69;4966180;28;20230;-81
2022/10/13 08:06:36;;;;;;;16.73;10.07;;;;;;;-141.97;58.97;47663.22;4992741;28;20167;-80
2022/10/13 08:09:03;;;;;;;22.53;14.13;;;;;;;-141.97;59.42;47603.66;4992110;28;20194;-81
2022/10/13 08:11:29;;;;;;;19.17;12.23;;;;;;;-141.97;59.26;47634.41;4991788;28;20218;-81
2022/10/13 08:13:59;;;;;;;22.57;11.87;;;;;;;-141.97;59.07;47657.47;4992438;28;20547;-81
2022/10/13 08:16:28;;;;;;;17.13;11.03;;;;;;;-141.97;59.74;47678.63;4992243;28;20691;-81
2022/10/13 08:18:56;;;;;;;19.60;11.57;;;;;;;-141.97;58.69;47644.00;4974789;28;20632;-81
2022/10/13 08:21:21;;;;;;;18.97;12.47;;;;;;;-141.97;58.57;47640.16;4991863;28;20171;-80
2022/10/13 08:23:47;;;;;;;19.63;11.43;;;;;;;-141.97;58.27;47588.28;5011080;28;20166;-81
2022/10/13 08:26:21;;;;;;;18.43;10.57;;;;;;;-141.97;57.46;47669.00;5012089;28;20172;-81
2022/10/13 08:28:46;;;;;;;16.53;10.67;;;;;;;-141.97;58.04;47657.47;5012033;28;20178;-80
2022/10/13 08:31:12;;;;;;;29.97;22.57;;;;;;;-141.97;57.83;47688.22;5011907;28;20177;-80
2022/10/13 08:33:37;;;;;;;30.87;20.47;;;;;;;-141.97;56.74;47667.06;5011739;28;20266;-81
2022/10/13 08:36:02;;;;;;;18.80;10.83;;;;;;;-141.97;55.44;47644.00;5011896;28;20202;-81
2022/10/13 08:38:28;;;;;;;16.63;10.90;;;;;;;-141.97;54.75;47663.22;5011422;28;20229;-80
2022/10/13 08:40:56;;;;;;;18.40;10.10;;;;;;;-141.97;54.64;47511.38;5008873;28;20177;-95
2022/10/13 08:43:23;;;;;;;16.33;10.50;;;;;;;-141.97;54.64;47803.56;4992035;28;20182;-95
2022/10/13 08:45:50;;;;;;;16.57;10.10;;;;;;;-141.97;54.41;47630.56;4998588;28;20189;-94
2022/10/13 08:48:21;;;;;;;16.37;9.97;;;;;;;-141.97;53.26;47649.78;4996955;28;20173;-95
2022/10/13 08:50:50;;;;;;;15.80;9.30;;;;;;;-141.97;52.14;47784.34;4994822;28;20281;-94
2022/10/13 08:53:38;;;;;;;14.37;9.10;;;;;;;-141.97;51.95;47770.88;4995192;28;20195;-95
2022/10/13 08:56:13;;;;;;;16.73;9.90;;;;;;;-141.97;51.77;47642.09;4978190;28;20672;-95
2022/10/13 08:58:48;;;;;;;15.80;10.27;;;;;;;-141.97;51.21;47349.94;4976827;28;20174;-94
2022/10/13 09:01:18;;;;;;;13.40;8.53;;;;;;;-141.97;51.31;47538.28;4987532;28;20277;-93
2022/10/13 09:04:09;;;;;;;15.80;7.83;;;;;;;-141.97;51.07;47526.75;5014898;28;20224;-93
2022/10/13 09:07:05;;;;;;;12.90;8.60;;;;;;;-141.97;51.07;47515.22;4997230;28;20174;-92
2022/10/13 09:09:31;;;;;;;12.60;9.07;;;;;;;-141.97;51.31;47542.16;4938561;29;20196;-93
2022/10/13 09:11:58;;;;;;;15.60;8.27;;;;;;;-141.97;50.28;47763.19;4929149;29;20193;-93
2022/10/13 09:14:29;;;;;;;15.77;8.20;;;;;;;-141.97;49.28;47447.97;4918998;29;20701;-94
2022/10/13 09:17:12;;;;;;;10.60;7.77;;;;;;;-141.97;48.84;47497.94;4933817;29;20666;-94
2022/10/13 09:19:39;;;;;;;10.43;6.93;;;;;;;-141.97;48.90;47640.16;4952510;29;20255;-94
2022/10/13 09:22:26;;;;;;;10.67;7.10;;;;;;;-141.97;49.11;47715.13;4949316;29;20259;-93
2022/10/13 09:25:10;;;;;;;12.67;7.30;;;;;;;-141.97;48.42;47640.16;4936530;29;20173;-93
2022/10/13 09:27:46;;;;;;;10.33;6.87;;;;;;;-141.97;47.96;47626.72;4937058;29;20203;-94
2022/10/13 09:30:33;;;;;;;11.47;7.37;;;;;;;-141.97;46.98;47628.63;4942817;29;20196;-94
2022/10/13 09:33:08;;;;;;;11.07;7.53;;;;;;;-141.97;46.27;47751.66;4941418;29;20229;-92
2022/10/13 09:35:35;;;;;;;10.90;7.13;;;;;;;-141.97;45.51;47659.38;4948936;29;20211;-91
2022/10/13 09:38:12;;;;;;;13.43;7.13;;;;;;;-141.97;45.57;47396.06;4963932;29;20596;-93
2022/10/13 09:40:39;;;;;;;10.17;6.83;;;;;;;-141.97;46.00;47601.72;4948238;29;20300;-92
2022/10/13 09:43:46;;;;;;;10.10;6.53;;;;;;;-141.97;45.33;47580.59;4964108;29;20180;-93
2022/10/13 09:46:28;;;;;;;10.40;6.90;;;;;;;-141.97;45.73;47713.22;4884943;29;20190;-95
2022/10/13 09:49:03;;;;;;;11.90;7.70;;;;;;;-141.97;45.92;47323.03;4922438;29;20202;-94
2022/10/13 09:54:56;;;;;;;11.53;7.30;;;;;;;-141.97;45.78;47355.72;4906059;29;20210;-93
2022/10/13 09:57:46;;;;;;;11.40;7.13;;;;;;;-141.97;46.01;47601.72;4890681;29;20281;-93
2022/10/13 10:00:28;;;;;;;10.57;7.60;;;;;;;-141.97;45.96;47401.84;4890769;29;20198;-94
2022/10/13 10:03:17;;;;;;;9.70;6.77;;;;;;;-141.97;44.29;47569.06;4907007;29;20194;-93
2022/10/13 10:05:54;;;;;;;12.13;6.63;;;;;;;-141.97;44.23;47615.19;4910580;29;20196;-94
2022/10/13 10:08:49;;;;;;;9.13;7.10;;;;;;;-141.97;43.87;47607.50;4904463;29;20292;-94
2022/10/13 10:11:28;;;;;;;13.00;7.30;;;;;;;-141.97;44.13;47449.88;4898892;29;20194;-94
2022/10/13 10:13:58;;;;;;;23.10;7.37;;;;;;;-141.97;43.66;47595.97;4911048;29;20194;-94
2022/10/13 10:22:06;;;;;;;9.87;7.13;;;;;;;-141.97;43.00;47584.44;5000074;28;20219;-94
2022/10/13 10:25:05;;;;;;;9.50;6.43;;;;;;;-141.97;42.55;47599.81;4997806;28;20683;-94
2022/10/13 10:27:37;;;;;;;12.57;7.13;;;;;;;-141.97;43.55;47743.97;5011633;28;20570;-95
2022/10/13 10:30:13;;;;;;;13.23;7.70;;;;;;;-141.97;43.93;47457.56;4981863;28;20177;-94
2022/10/13 10:32:47;;;;;;;10.67;6.70;;;;;;;-141.97;43.99;47655.53;4987238;28;20198;-94
2022/10/13 10:35:50;;;;;;;10.50;7.33;;;;;;;-141.97;43.38;47622.88;5006433;28;20198;-94
2022/10/13 10:38:54;;;;;;;10.23;7.27;;;;;;;-141.97;43.61;47599.81;5004739;28;20175;-94
2022/10/13 10:41:49;;;;;;;11.13;7.20;;;;;;;-141.97;43.28;47505.63;4923546;29;20201;-94
2022/10/13 10:44:27;;;;;;;11.70;7.20;;;;;;;-141.97;43.21;47561.38;4932739;29;20257;-94
2022/10/13 10:46:58;;;;;;;10.33;7.10;;;;;;;-141.97;43.07;47576.75;4930784;29;20544;-92
2022/10/13 10:49:30;;;;;;;14.97;7.47;;;;;;;-141.97;43.12;47469.09;4920219;29;20260;-93
2022/10/13 10:51:57;;;;;;;13.43;7.80;;;;;;;-141.97;42.78;47749.72;4919353;29;20203;-93
2022/10/13 10:55:08;;;;;;;10.73;7.47;;;;;;;-141.97;42.51;47607.50;4924132;29;20658;-93
2022/10/13 10:58:15;;;;;;;13.17;7.53;;;;;;;-141.97;43.06;47478.72;4922866;29;20189;-92
2022/10/13 11:00:51;;;;;;;14.20;8.17;;;;;;;-141.97;43.47;47586.34;4885410;29;20205;-92
2022/10/13 11:03:37;;;;;;;13.37;7.60;;;;;;;-141.97;42.77;47601.72;4855935;29;20263;-92
2022/10/13 11:06:19;;;;;;;9.63;7.47;;;;;;;-141.97;42.77;47422.97;4820427;29;20214;-92
2022/10/13 11:08:47;;;;;;;10.40;7.27;;;;;;;-141.97;42.22;47615.19;4798784;29;20194;-91
2022/10/13 11:11:21;;;;;;;13.30;7.10;;;;;;;-141.97;42.12;47595.97;4791519;29;20303;-94
2022/10/13 11:13:59;;;;;;;12.43;8.07;;;;;;;-141.97;41.61;47570.97;4808046;29;20810;-92
2022/10/13 11:16:31;;;;;;;11.87;7.47;;;;;;;-141.97;41.66;47826.63;4808529;29;20186;-93
2022/10/13 11:19:06;;;;;;;13.70;7.60;;;;;;;-141.97;41.80;47599.81;4805200;29;20585;-93
2022/10/13 11:21:53;;;;;;;9.63;7.80;;;;;;;-141.97;42.25;47565.22;4822617;29;20228;-91
2022/10/13 11:24:38;;;;;;;16.97;8.67;;;;;;;-141.97;42.68;47557.53;4823205;29;20193;-93
2022/10/13 11:27:09;;;;;;;12.10;8.27;;;;;;;-141.97;42.31;47572.91;4823104;29;20249;-93
2022/10/13 11:29:47;;;;;;;13.73;8.30;;;;;;;-141.97;41.63;47574.81;4822690;29;20288;-93